createdAt,value
2023-02-26T00:01:40.251Z,4.00
2023-02-26T00:04:08.430Z,4.10
2023-02-26T00:06:39.076Z,4.00
2023-02-26T00:09:07.018Z,4.00
2023-02-26T00:11:34.676Z,3.90
2023-02-26T00:14:02.532Z,3.90
2023-02-26T00:16:36.248Z,3.80
2023-02-26T00:19:05.982Z,3.80
2023-02-26T00:21:35.795Z,3.90
2023-02-26T00:24:03.780Z,4.00
2023-02-26T00:26:32.580Z,4.00
2023-02-26T00:29:00.269Z,4.00
2023-02-26T00:31:28.390Z,4.00
2023-02-26T00:33:57.844Z,3.90
2023-02-26T00:36:57.134Z,3.80
2023-02-26T00:39:30.607Z,3.80
2023-02-26T00:41:58.329Z,3.80
2023-02-26T00:44:26.030Z,3.80
2023-02-26T00:47:08.773Z,3.80
2023-02-26T00:50:11.135Z,3.90
2023-02-26T00:53:03.407Z,4.00
2023-02-26T00:55:31.243Z,4.00
2023-02-26T00:57:58.612Z,3.90
2023-02-26T01:00:26.139Z,3.80
2023-02-26T01:02:53.984Z,3.80
2023-02-26T01:05:21.832Z,3.80
2023-02-26T01:07:59.632Z,3.70
2023-02-26T01:10:27.931Z,3.70
2023-02-26T01:12:56.948Z,3.80
2023-02-26T01:15:25.180Z,3.80
2023-02-26T01:18:09.875Z,3.80
2023-02-26T01:20:44.927Z,3.80
2023-02-26T01:23:20.058Z,3.90
2023-02-26T01:25:55.828Z,3.80
2023-02-26T01:28:24.192Z,3.70
2023-02-26T01:30:54.793Z,3.70
2023-02-26T01:33:32.118Z,3.60
2023-02-26T01:36:15.064Z,3.60
2023-02-26T01:39:19.663Z,3.70
2023-02-26T01:41:49.234Z,3.70
2023-02-26T01:44:26.355Z,3.70
2023-02-26T01:46:53.703Z,3.80
2023-02-26T01:49:22.137Z,3.70
2023-02-26T01:52:05.435Z,3.70
2023-02-26T01:54:38.206Z,3.60
2023-02-26T01:57:12.937Z,3.60
2023-02-26T01:59:45.130Z,3.60
2023-02-26T02:02:16.366Z,3.60
2023-02-26T02:04:44.341Z,3.70
2023-02-26T02:07:11.875Z,3.70
2023-02-26T02:09:39.687Z,3.70
2023-02-26T02:12:22.439Z,3.80
2023-02-26T02:15:04.533Z,3.70
2023-02-26T02:17:56.197Z,3.60
2023-02-26T02:20:48.870Z,3.50
2023-02-26T02:23:32.680Z,3.50
2023-02-26T02:26:05.901Z,3.50
2023-02-26T02:29:03.284Z,3.60
2023-02-26T02:31:54.903Z,3.70
2023-02-26T02:34:26.577Z,3.70
2023-02-26T02:37:06.322Z,3.70
2023-02-26T02:39:44.522Z,3.50
2023-02-26T02:42:21.072Z,3.50
2023-02-26T02:44:55.282Z,3.40
2023-02-26T02:47:23.772Z,3.40
2023-02-26T02:50:08.230Z,3.40
2023-02-26T02:52:52.989Z,3.40
2023-02-26T02:55:38.523Z,3.60
2023-02-26T02:58:12.436Z,3.60
2023-02-26T03:00:46.577Z,3.50
2023-02-26T03:03:30.801Z,3.70
2023-02-26T03:05:58.279Z,3.60
2023-02-26T03:08:30.338Z,3.60
2023-02-26T03:10:58.268Z,3.60
2023-02-26T03:13:26.616Z,3.60
2023-02-26T03:16:14.879Z,3.70
2023-02-26T03:18:53.657Z,3.70
2023-02-26T03:21:36.372Z,3.70
2023-02-26T03:24:17.838Z,3.80
2023-02-26T03:26:54.787Z,3.80
2023-02-26T03:29:42.724Z,3.70
2023-02-26T03:32:22.080Z,3.60
2023-02-26T03:35:17.827Z,3.70
2023-02-26T03:37:48.475Z,3.70
2023-02-26T03:40:27.534Z,3.70
2023-02-26T03:43:08.289Z,3.80
2023-02-26T03:45:39.701Z,3.80
2023-02-26T03:48:11.133Z,3.80
2023-02-26T03:50:49.647Z,3.80
2023-02-26T03:53:23.180Z,3.70
2023-02-26T03:55:58.843Z,3.60
2023-02-26T03:58:26.561Z,3.60
2023-02-26T04:01:03.628Z,3.50
2023-02-26T04:03:35.386Z,3.50
2023-02-26T04:06:03.980Z,3.50
2023-02-26T04:08:31.722Z,3.70
2023-02-26T04:11:06.504Z,3.60
2023-02-26T04:13:34.079Z,3.60
2023-02-26T04:16:01.730Z,3.60
2023-02-26T04:18:29.186Z,3.50
2023-02-26T04:20:56.574Z,3.50
2023-02-26T04:23:24.390Z,3.50
2023-02-26T04:25:51.936Z,3.50
2023-02-26T04:28:19.242Z,3.60
2023-02-26T04:30:46.799Z,3.60
2023-02-26T04:33:15.924Z,3.70
2023-02-26T04:35:43.358Z,3.70
2023-02-26T04:38:10.817Z,3.70
2023-02-26T04:40:38.429Z,3.70
2023-02-26T04:43:06.033Z,3.60
2023-02-26T04:45:33.503Z,3.40
2023-02-26T04:48:01.171Z,3.50
2023-02-26T04:50:28.716Z,3.40
2023-02-26T04:52:56.359Z,3.40
2023-02-26T04:55:23.968Z,3.30
2023-02-26T04:57:51.369Z,3.40
2023-02-26T05:00:19.990Z,3.40
2023-02-26T05:02:47.575Z,3.40
2023-02-26T05:05:14.928Z,3.30
2023-02-26T05:07:42.257Z,3.30
2023-02-26T05:10:10.426Z,3.30
2023-02-26T05:12:38.129Z,3.20
2023-02-26T05:15:06.105Z,3.20
2023-02-26T05:17:33.382Z,3.10
2023-02-26T05:20:00.925Z,3.30
2023-02-26T05:22:28.521Z,3.30
2023-02-26T05:24:56.372Z,3.40
2023-02-26T05:27:23.934Z,3.40
2023-02-26T05:29:51.572Z,3.20
2023-02-26T05:32:19.038Z,3.20
2023-02-26T05:34:46.326Z,3.20
2023-02-26T05:37:13.876Z,3.20
2023-02-26T05:39:41.606Z,3.20
2023-02-26T05:42:09.375Z,3.30
2023-02-26T05:44:36.819Z,3.30
2023-02-26T05:47:04.528Z,3.40
2023-02-26T05:49:31.924Z,3.30
2023-02-26T05:51:59.238Z,3.30
2023-02-26T05:54:26.899Z,3.20
2023-02-26T05:56:54.570Z,3.10
2023-02-26T05:59:22.064Z,3.10
2023-02-26T06:01:49.693Z,3.10
2023-02-26T06:04:17.333Z,3.00
2023-02-26T06:06:44.771Z,3.00
2023-02-26T06:09:12.407Z,3.10
2023-02-26T06:11:40.604Z,3.20
2023-02-26T06:14:07.988Z,3.30
2023-02-26T06:16:35.995Z,3.20
2023-02-26T06:19:03.533Z,3.10
2023-02-26T06:21:31.186Z,3.10
2023-02-26T06:23:58.758Z,3.10
2023-02-26T06:26:26.622Z,3.10
2023-02-26T06:28:54.268Z,3.10
2023-02-26T06:31:21.637Z,3.20
2023-02-26T06:33:49.169Z,3.30
2023-02-26T06:36:17.573Z,3.40
2023-02-26T06:38:45.569Z,3.40
2023-02-26T06:41:13.930Z,3.30
2023-02-26T06:43:41.310Z,3.20
2023-02-26T06:46:08.818Z,3.10
2023-02-26T06:48:36.526Z,3.20
2023-02-26T06:51:05.572Z,3.10
2023-02-26T06:53:34.721Z,3.10
2023-02-26T06:56:02.617Z,3.20
2023-02-26T06:58:30.211Z,3.20
2023-02-26T07:00:57.609Z,3.20
2023-02-26T07:03:25.070Z,3.20
2023-02-26T07:05:52.719Z,3.10
2023-02-26T07:08:20.265Z,3.10
2023-02-26T07:10:49.542Z,3.10
2023-02-26T07:13:17.724Z,3.10
2023-02-26T07:15:46.344Z,3.10
2023-02-26T07:18:13.934Z,3.10
2023-02-26T07:20:42.667Z,3.30
2023-02-26T07:23:10.213Z,3.30
2023-02-26T07:25:37.617Z,3.40
2023-02-26T07:28:05.166Z,3.40
2023-02-26T07:30:32.793Z,3.20
2023-02-26T07:33:00.568Z,3.20
2023-02-26T07:35:41.852Z,3.20
2023-02-26T07:38:10.229Z,3.20
2023-02-26T07:40:37.558Z,3.20
2023-02-26T07:43:05.160Z,3.30
2023-02-26T07:45:32.884Z,3.50
2023-02-26T07:48:00.954Z,3.60
2023-02-26T07:50:33.577Z,3.70
2023-02-26T07:53:01.618Z,3.70
2023-02-26T07:55:30.775Z,3.60
2023-02-26T07:57:58.156Z,3.60
2023-02-26T08:00:25.676Z,3.70
2023-02-26T08:02:53.272Z,3.70
2023-02-26T08:05:20.839Z,3.70
2023-02-26T08:07:48.762Z,3.70
2023-02-26T08:10:16.710Z,3.80
2023-02-26T08:12:44.320Z,3.80
2023-02-26T08:15:14.447Z,3.80
2023-02-26T08:17:42.368Z,3.80
2023-02-26T08:20:10.517Z,3.90
2023-02-26T08:22:39.938Z,3.90
2023-02-26T08:25:12.868Z,3.90
2023-02-26T08:27:40.502Z,4.00
2023-02-26T08:30:08.885Z,4.10
2023-02-26T08:32:37.060Z,4.10
2023-02-26T08:35:04.869Z,4.10
2023-02-26T08:37:32.602Z,4.10
2023-02-26T08:40:00.361Z,4.20
2023-02-26T08:42:28.081Z,4.20
2023-02-26T08:44:55.714Z,4.30
2023-02-26T08:47:29.097Z,4.30
2023-02-26T08:50:00.361Z,4.30
2023-02-26T08:52:28.430Z,4.30
2023-02-26T08:55:00.672Z,4.30
2023-02-26T08:57:28.813Z,4.30
2023-02-26T08:59:56.170Z,4.40
2023-02-26T09:02:23.504Z,4.40
2023-02-26T09:04:52.660Z,4.50
2023-02-26T09:07:21.640Z,4.50
2023-02-26T09:09:49.328Z,4.60
2023-02-26T09:12:22.262Z,4.60
2023-02-26T09:15:03.501Z,4.70
2023-02-26T09:17:32.495Z,4.70
2023-02-26T09:20:00.698Z,4.80
2023-02-26T09:22:28.515Z,4.90
2023-02-26T09:24:56.213Z,4.90
2023-02-26T09:27:23.816Z,5.00
2023-02-26T09:29:51.324Z,5.10
2023-02-26T09:32:18.767Z,5.20
2023-02-26T09:34:51.583Z,5.30
2023-02-26T09:37:20.076Z,5.40
2023-02-26T09:39:50.158Z,5.50
2023-02-26T09:42:49.679Z,5.50
2023-02-26T09:45:30.234Z,5.60
2023-02-26T09:47:59.540Z,5.70
2023-02-26T09:50:52.278Z,5.70
2023-02-26T09:53:40.287Z,5.80
2023-02-26T09:56:23.807Z,5.80
2023-02-26T09:58:58.918Z,6.00
2023-02-26T10:02:00.889Z,6.00
2023-02-26T10:04:40.559Z,6.00
2023-02-26T10:07:49.698Z,6.20
2023-02-26T10:10:52.691Z,6.40
2023-02-26T10:13:57.070Z,6.50
2023-02-26T10:16:33.761Z,6.60
2023-02-26T10:19:11.650Z,6.80
2023-02-26T10:22:02.939Z,6.80
2023-02-26T10:24:52.137Z,6.80
2023-02-26T10:27:59.830Z,6.90
2023-02-26T10:30:27.787Z,6.90
2023-02-26T10:33:18.948Z,6.90
2023-02-26T10:36:07.033Z,6.90
2023-02-26T10:38:44.459Z,7.00
2023-02-26T10:41:18.220Z,6.90
2023-02-26T10:44:10.869Z,6.80
2023-02-26T10:46:53.102Z,6.70
2023-02-26T10:49:37.762Z,6.70
2023-02-26T10:52:26.254Z,6.70
2023-02-26T10:55:07.295Z,6.80
2023-02-26T10:57:37.589Z,6.80
2023-02-26T11:00:15.104Z,6.90
2023-02-26T11:02:47.411Z,6.90
2023-02-26T11:05:24.515Z,6.90
2023-02-26T11:08:16.346Z,7.00
2023-02-26T11:10:53.465Z,7.10
2023-02-26T11:13:29.318Z,7.10
2023-02-26T11:16:00.663Z,7.30
2023-02-26T11:19:01.025Z,7.30
2023-02-26T11:21:40.042Z,7.40
2023-02-26T11:24:15.022Z,7.40
2023-02-26T11:26:51.361Z,7.50
2023-02-26T11:29:21.579Z,7.50
2023-02-26T11:31:53.411Z,7.50
2023-02-26T11:34:26.515Z,7.50
2023-02-26T11:36:57.615Z,7.70
2023-02-26T11:39:28.803Z,7.80
2023-02-26T11:42:00.901Z,7.80
2023-02-26T11:44:45.674Z,7.70
2023-02-26T11:47:15.007Z,7.70
2023-02-26T11:49:54.272Z,7.60
2023-02-26T11:52:40.306Z,7.60
2023-02-26T11:55:36.320Z,7.60
2023-02-26T11:58:17.065Z,7.60
2023-02-26T12:00:45.147Z,7.60
2023-02-26T12:03:24.155Z,7.70
2023-02-26T12:05:53.325Z,7.80
2023-02-26T12:08:38.347Z,7.80
2023-02-26T12:11:16.700Z,7.90
2023-02-26T12:14:02.410Z,7.80
2023-02-26T12:17:04.998Z,7.70
2023-02-26T12:19:47.675Z,7.60
2023-02-26T12:22:21.236Z,7.50
2023-02-26T12:25:22.007Z,7.50
2023-02-26T12:28:16.202Z,7.60
2023-02-26T12:30:49.819Z,7.60
2023-02-26T12:33:32.896Z,7.90
2023-02-26T12:36:49.751Z,7.90
2023-02-26T12:39:23.419Z,7.90
2023-02-26T12:41:56.007Z,7.90
2023-02-26T12:45:01.606Z,7.90
2023-02-26T12:47:50.799Z,7.90
2023-02-26T12:50:21.409Z,7.90
2023-02-26T12:52:57.861Z,7.80
2023-02-26T12:55:48.554Z,7.70
2023-02-26T12:58:45.980Z,7.70
2023-02-26T13:01:23.408Z,7.50
2023-02-26T13:04:21.858Z,7.50
2023-02-26T13:07:23.062Z,7.40
2023-02-26T13:10:20.595Z,7.50
2023-02-26T13:12:55.263Z,7.50
2023-02-26T13:15:47.322Z,7.50
2023-02-26T13:18:52.562Z,7.50
2023-02-26T13:21:25.724Z,7.50
2023-02-26T13:24:07.326Z,7.60
2023-02-26T13:26:34.969Z,7.60
2023-02-26T13:29:17.420Z,7.70
2023-02-26T13:31:51.790Z,7.70
2023-02-26T13:34:41.552Z,7.60
2023-02-26T13:37:21.207Z,7.60
2023-02-26T13:40:01.096Z,7.50
2023-02-26T13:42:37.107Z,7.50
2023-02-26T13:45:16.952Z,7.60
2023-02-26T13:47:47.519Z,7.70
2023-02-26T13:50:24.006Z,7.70
2023-02-26T13:53:28.203Z,7.80
2023-02-26T13:56:13.660Z,7.90
2023-02-26T13:58:43.944Z,7.90
2023-02-26T14:01:34.369Z,7.90
2023-02-26T14:04:21.716Z,7.80
2023-02-26T14:07:00.564Z,7.80
2023-02-26T14:09:55.329Z,7.70
2023-02-26T14:12:22.755Z,7.70
2023-02-26T14:15:00.104Z,7.70
2023-02-26T14:17:36.646Z,7.70
2023-02-26T14:20:17.000Z,7.80
2023-02-26T14:22:51.102Z,7.80
2023-02-26T14:25:35.148Z,7.90
2023-02-26T14:28:42.953Z,8.00
2023-02-26T14:31:12.876Z,8.00
2023-02-26T14:33:47.159Z,8.00
2023-02-26T14:36:54.629Z,7.90
2023-02-26T14:39:45.542Z,7.80
2023-02-26T14:42:21.607Z,7.80
2023-02-26T14:45:01.260Z,7.80
2023-02-26T14:47:29.307Z,7.90
2023-02-26T14:50:00.448Z,7.80
2023-02-26T14:52:55.543Z,7.80
2023-02-26T14:55:40.965Z,7.70
2023-02-26T14:58:17.393Z,7.60
2023-02-26T15:00:58.722Z,7.70
2023-02-26T15:04:08.161Z,7.70
2023-02-26T15:06:51.656Z,7.70
2023-02-26T15:09:39.093Z,7.70
2023-02-26T15:12:26.871Z,7.70
2023-02-26T15:15:05.853Z,7.60
2023-02-26T15:17:54.459Z,7.50
2023-02-26T15:20:39.313Z,7.40
2023-02-26T15:23:20.509Z,7.30
2023-02-26T15:25:49.706Z,7.30
2023-02-26T15:28:30.185Z,7.20
2023-02-26T15:31:03.067Z,7.20
2023-02-26T15:33:30.874Z,7.30
2023-02-26T15:35:59.753Z,7.30
2023-02-26T15:38:28.100Z,7.30
2023-02-26T15:41:01.722Z,7.40
2023-02-26T15:43:29.846Z,7.40
2023-02-26T15:45:58.771Z,7.40
2023-02-26T15:48:38.662Z,7.50
2023-02-26T15:51:10.287Z,7.40
2023-02-26T15:53:41.198Z,7.40
2023-02-26T15:56:19.779Z,7.30
2023-02-26T15:58:51.936Z,7.30
2023-02-26T16:01:22.534Z,7.20
2023-02-26T16:03:52.426Z,7.10
2023-02-26T16:06:29.946Z,7.10
2023-02-26T16:08:58.236Z,7.00
2023-02-26T16:11:36.398Z,7.00
2023-02-26T16:14:05.401Z,7.10
2023-02-26T16:16:44.099Z,7.10
2023-02-26T16:19:17.857Z,7.10
2023-02-26T16:21:47.792Z,7.10
2023-02-26T16:24:21.893Z,7.20
2023-02-26T16:27:00.001Z,7.20
2023-02-26T16:29:30.742Z,7.20
2023-02-26T16:32:03.117Z,7.20
2023-02-26T16:34:40.788Z,7.30
2023-02-26T16:37:33.844Z,7.50
2023-02-26T16:40:15.854Z,7.60
2023-02-26T16:42:54.699Z,7.50
2023-02-26T16:45:37.416Z,7.50
2023-02-26T16:48:16.592Z,7.50
2023-02-26T16:50:44.406Z,7.50
2023-02-26T16:53:19.648Z,7.50
2023-02-26T16:55:51.998Z,7.50
2023-02-26T16:58:22.054Z,7.50
2023-02-26T17:00:58.150Z,7.50
2023-02-26T17:03:27.080Z,7.40
2023-02-26T17:06:08.477Z,7.30
2023-02-26T17:08:52.718Z,7.30
2023-02-26T17:11:30.530Z,7.30
2023-02-26T17:14:23.490Z,7.30
2023-02-26T17:16:51.689Z,7.20
2023-02-26T17:19:19.915Z,7.20
2023-02-26T17:21:50.342Z,7.10
2023-02-26T17:24:29.171Z,7.00
2023-02-26T17:26:58.029Z,6.90
2023-02-26T17:29:34.495Z,6.80
2023-02-26T17:32:17.773Z,6.80
2023-02-26T17:34:45.530Z,6.80
2023-02-26T17:37:14.928Z,6.80
2023-02-26T17:39:43.554Z,6.70
2023-02-26T17:42:16.543Z,6.60
2023-02-26T17:44:43.882Z,6.50
2023-02-26T17:47:23.029Z,6.40
2023-02-26T17:49:50.639Z,6.50
2023-02-26T17:52:18.633Z,6.50
2023-02-26T17:54:46.279Z,6.40
2023-02-26T17:57:21.929Z,6.40
2023-02-26T17:59:49.545Z,6.30
2023-02-26T18:02:27.143Z,6.30
2023-02-26T18:04:55.025Z,6.20
2023-02-26T18:07:24.432Z,6.10
2023-02-26T18:09:52.008Z,6.10
2023-02-26T18:12:22.151Z,6.20
2023-02-26T18:14:50.156Z,6.20
2023-02-26T18:17:27.669Z,6.30
2023-02-26T18:19:55.452Z,6.30
2023-02-26T18:22:25.487Z,6.20
2023-02-26T18:24:54.053Z,6.20
2023-02-26T18:27:24.051Z,6.10
2023-02-26T18:29:52.392Z,6.00
2023-02-26T18:32:22.576Z,6.00
2023-02-26T18:34:51.769Z,5.90
2023-02-26T18:37:22.641Z,5.90
2023-02-26T18:39:50.492Z,5.90
2023-02-26T18:42:22.899Z,5.90
2023-02-26T18:44:51.045Z,6.00
2023-02-26T18:47:19.546Z,6.10
2023-02-26T18:49:48.844Z,6.10
2023-02-26T18:52:16.995Z,6.10
2023-02-26T18:54:45.220Z,6.10
2023-02-26T18:57:13.060Z,5.90
2023-02-26T18:59:40.892Z,5.90
2023-02-26T19:02:11.953Z,5.80
2023-02-26T19:04:40.092Z,5.70
2023-02-26T19:07:09.185Z,5.70
2023-02-26T19:09:36.858Z,5.90
2023-02-26T19:12:05.948Z,5.90
2023-02-26T19:14:33.692Z,5.80
2023-02-26T19:17:01.252Z,5.80
2023-02-26T19:19:29.092Z,5.70
2023-02-26T19:21:58.585Z,5.60
2023-02-26T19:24:26.136Z,5.50
2023-02-26T19:26:53.745Z,5.50
2023-02-26T19:29:21.395Z,5.40
2023-02-26T19:31:49.232Z,5.50
2023-02-26T19:34:17.796Z,5.50
2023-02-26T19:36:48.333Z,5.60
2023-02-26T19:39:17.390Z,5.60
2023-02-26T19:41:46.043Z,5.50
2023-02-26T19:44:13.538Z,5.40
2023-02-26T19:46:42.041Z,5.30
2023-02-26T19:49:12.538Z,5.20
2023-02-26T19:51:40.144Z,5.20
2023-02-26T19:54:07.848Z,5.20
2023-02-26T19:56:35.998Z,5.10
2023-02-26T19:59:03.631Z,5.30
2023-02-26T20:01:31.368Z,5.20
2023-02-26T20:03:59.101Z,5.30
2023-02-26T20:06:27.340Z,5.20
2023-02-26T20:08:55.296Z,5.20
2023-02-26T20:11:23.616Z,5.10
2023-02-26T20:13:51.041Z,5.00
2023-02-26T20:16:18.598Z,5.00
2023-02-26T20:18:46.251Z,4.90
2023-02-26T20:21:14.159Z,4.90
2023-02-26T20:23:41.942Z,5.00
2023-02-26T20:26:12.898Z,5.00
2023-02-26T20:28:42.203Z,4.90
2023-02-26T20:31:10.843Z,4.90
2023-02-26T20:33:39.492Z,4.90
2023-02-26T20:36:08.690Z,4.80
2023-02-26T20:38:36.641Z,4.70
2023-02-26T20:41:05.289Z,4.70
2023-02-26T20:43:33.446Z,4.60
2023-02-26T20:46:01.531Z,4.60
2023-02-26T20:48:29.293Z,4.60
2023-02-26T20:51:06.525Z,4.50
2023-02-26T20:53:34.338Z,4.40
2023-02-26T20:56:01.896Z,4.40
2023-02-26T20:58:29.346Z,4.40
2023-02-26T21:00:57.577Z,4.40
2023-02-26T21:03:25.516Z,4.40
2023-02-26T21:05:53.192Z,4.30
2023-02-26T21:08:20.700Z,4.30
2023-02-26T21:10:51.566Z,4.30
2023-02-26T21:13:19.538Z,4.30
2023-02-26T21:15:48.738Z,4.20
2023-02-26T21:18:16.600Z,4.20
2023-02-26T21:20:44.090Z,4.20
2023-02-26T21:23:11.540Z,4.20
2023-02-26T21:25:40.988Z,4.20
2023-02-26T21:28:11.945Z,4.20
2023-02-26T21:30:39.462Z,4.20
2023-02-26T21:33:08.535Z,4.30
2023-02-26T21:35:36.200Z,4.40
2023-02-26T21:38:03.793Z,4.40
2023-02-26T21:40:32.192Z,4.40
2023-02-26T21:42:59.585Z,4.40
2023-02-26T21:45:27.149Z,4.30
2023-02-26T21:47:54.821Z,4.30
2023-02-26T21:50:23.113Z,4.20
2023-02-26T21:52:50.493Z,4.20
2023-02-26T21:55:17.937Z,4.10
2023-02-26T21:57:45.978Z,4.10
2023-02-26T22:00:14.494Z,4.10
2023-02-26T22:02:44.023Z,4.00
2023-02-26T22:05:12.890Z,4.00
2023-02-26T22:07:40.431Z,3.90
2023-02-26T22:10:08.879Z,3.90
2023-02-26T22:12:36.696Z,3.80
2023-02-26T22:15:04.829Z,3.90
2023-02-26T22:17:32.437Z,3.90
2023-02-26T22:20:01.543Z,4.00
2023-02-26T22:22:31.623Z,4.00
2023-02-26T22:24:59.032Z,3.90
2023-02-26T22:27:26.680Z,3.80
2023-02-26T22:29:54.545Z,3.70
2023-02-26T22:32:22.263Z,3.70
2023-02-26T22:34:52.333Z,3.70
2023-02-26T22:37:20.240Z,3.70
2023-02-26T22:39:47.838Z,3.70
2023-02-26T22:42:15.870Z,3.70
2023-02-26T22:44:43.721Z,3.80
2023-02-26T22:47:11.537Z,3.80
2023-02-26T22:49:38.952Z,3.70
2023-02-26T22:52:08.017Z,3.70
2023-02-26T22:54:36.192Z,3.60
2023-02-26T22:57:03.934Z,3.60
2023-02-26T22:59:31.494Z,3.50
2023-02-26T23:01:59.353Z,3.50
2023-02-26T23:04:26.846Z,3.50
2023-02-26T23:06:54.188Z,3.60
2023-02-26T23:09:21.851Z,3.60
2023-02-26T23:11:49.543Z,3.60
2023-02-26T23:14:17.702Z,3.60
2023-02-26T23:16:45.185Z,3.50
2023-02-26T23:19:13.272Z,3.50
2023-02-26T23:21:41.038Z,3.50
2023-02-26T23:24:08.646Z,3.40
2023-02-26T23:26:36.198Z,3.40
2023-02-26T23:29:04.038Z,3.50
2023-02-26T23:31:32.438Z,3.50
2023-02-26T23:34:00.200Z,3.60
2023-02-26T23:36:27.591Z,3.60
2023-02-26T23:38:55.229Z,3.50
2023-02-26T23:41:22.839Z,3.40
2023-02-26T23:43:50.140Z,3.40
2023-02-26T23:46:17.680Z,3.40
2023-02-26T23:48:44.977Z,3.30
2023-02-26T23:51:12.290Z,3.30
2023-02-26T23:53:39.644Z,3.40
2023-02-26T23:56:07.641Z,3.40
2023-02-26T23:58:35.146Z,3.50
